sensor_id;sensor_type;location;lat;lon;timestamp;temperature;humidity
13682;DHT22;6913;49.892;7.936;2022-08-25T00:00:07;18.70;99.90
13682;DHT22;6913;49.892;7.936;2022-08-25T00:02:35;18.60;99.90
13682;DHT22;6913;49.892;7.936;2022-08-25T00:05:03;18.60;99.90
13682;DHT22;6913;49.892;7.936;2022-08-25T00:07:30;18.50;99.90
13682;DHT22;6913;49.892;7.936;2022-08-25T00:09:57;18.50;99.90
13682;DHT22;6913;49.892;7.936;2022-08-25T00:12:25;18.50;99.90
13682;DHT22;6913;49.892;7.936;2022-08-25T00:14:51;18.10;99.90
13682;DHT22;6913;49.892;7.936;2022-08-25T00:17:19;18.10;99.90
13682;DHT22;6913;49.892;7.936;2022-08-25T00:19:47;18.00;99.90
13682;DHT22;6913;49.892;7.936;2022-08-25T00:22:15;18.00;99.90
13682;DHT22;6913;49.892;7.936;2022-08-25T00:24:42;18.10;99.90
13682;DHT22;6913;49.892;7.936;2022-08-25T00:27:09;18.10;99.90
13682;DHT22;6913;49.892;7.936;2022-08-25T00:29:37;18.20;99.90
13682;DHT22;6913;49.892;7.936;2022-08-25T00:32:04;18.10;99.90
13682;DHT22;6913;49.892;7.936;2022-08-25T00:34:37;18.00;99.90
13682;DHT22;6913;49.892;7.936;2022-08-25T00:37:07;18.00;99.90
13682;DHT22;6913;49.892;7.936;2022-08-25T00:39:36;17.70;99.90
13682;DHT22;6913;49.892;7.936;2022-08-25T00:42:05;17.60;99.90
13682;DHT22;6913;49.892;7.936;2022-08-25T00:44:32;17.60;99.90
13682;DHT22;6913;49.892;7.936;2022-08-25T00:47:01;17.30;99.90
13682;DHT22;6913;49.892;7.936;2022-08-25T00:49:32;17.30;99.90
13682;DHT22;6913;49.892;7.936;2022-08-25T00:52:02;17.40;99.90
13682;DHT22;6913;49.892;7.936;2022-08-25T00:54:35;17.50;99.90
13682;DHT22;6913;49.892;7.936;2022-08-25T00:57:04;17.50;99.90
13682;DHT22;6913;49.892;7.936;2022-08-25T00:59:32;17.50;99.90
13682;DHT22;6913;49.892;7.936;2022-08-25T01:02:00;17.50;99.90
13682;DHT22;6913;49.892;7.936;2022-08-25T01:04:28;17.60;99.90
13682;DHT22;6913;49.892;7.936;2022-08-25T01:06:57;17.60;99.90
13682;DHT22;6913;49.892;7.936;2022-08-25T01:09:25;17.60;99.90
13682;DHT22;6913;49.892;7.936;2022-08-25T01:11:55;17.60;99.90
13682;DHT22;6913;49.892;7.936;2022-08-25T01:14:24;17.60;99.90
13682;DHT22;6913;49.892;7.936;2022-08-25T01:16:51;17.60;99.90
13682;DHT22;6913;49.892;7.936;2022-08-25T01:19:19;17.60;99.90
13682;DHT22;6913;49.892;7.936;2022-08-25T01:21:49;17.60;99.90
13682;DHT22;6913;49.892;7.936;2022-08-25T01:24:24;17.60;99.90
13682;DHT22;6913;49.892;7.936;2022-08-25T01:26:52;17.60;99.90
13682;DHT22;6913;49.892;7.936;2022-08-25T01:29:19;17.70;99.90
13682;DHT22;6913;49.892;7.936;2022-08-25T01:31:52;17.50;99.90
13682;DHT22;6913;49.892;7.936;2022-08-25T01:34:20;17.50;99.90
13682;DHT22;6913;49.892;7.936;2022-08-25T01:36:48;17.40;99.90
13682;DHT22;6913;49.892;7.936;2022-08-25T01:39:15;17.40;99.90
13682;DHT22;6913;49.892;7.936;2022-08-25T01:41:53;17.40;99.90
13682;DHT22;6913;49.892;7.936;2022-08-25T01:44:23;17.30;99.90
13682;DHT22;6913;49.892;7.936;2022-08-25T01:46:51;17.20;99.90
13682;DHT22;6913;49.892;7.936;2022-08-25T01:49:19;17.20;99.90
13682;DHT22;6913;49.892;7.936;2022-08-25T01:51:56;17.40;99.90
13682;DHT22;6913;49.892;7.936;2022-08-25T01:54:25;17.10;99.90
13682;DHT22;6913;49.892;7.936;2022-08-25T01:56:52;17.10;99.90
13682;DHT22;6913;49.892;7.936;2022-08-25T01:59:20;17.00;99.90
13682;DHT22;6913;49.892;7.936;2022-08-25T02:01:48;17.10;99.90
13682;DHT22;6913;49.892;7.936;2022-08-25T02:04:14;16.90;99.90
13682;DHT22;6913;49.892;7.936;2022-08-25T02:06:41;16.90;99.90
13682;DHT22;6913;49.892;7.936;2022-08-25T02:09:13;17.00;99.90
13682;DHT22;6913;49.892;7.936;2022-08-25T02:11:43;16.90;99.90
13682;DHT22;6913;49.892;7.936;2022-08-25T02:14:11;16.80;99.90
13682;DHT22;6913;49.892;7.936;2022-08-25T02:16:41;16.80;99.90
13682;DHT22;6913;49.892;7.936;2022-08-25T02:19:10;16.70;99.90
13682;DHT22;6913;49.892;7.936;2022-08-25T02:21:37;16.70;99.90
13682;DHT22;6913;49.892;7.936;2022-08-25T02:24:05;16.70;99.90
13682;DHT22;6913;49.892;7.936;2022-08-25T02:26:33;16.60;99.90
13682;DHT22;6913;49.892;7.936;2022-08-25T02:29:01;16.60;99.90
13682;DHT22;6913;49.892;7.936;2022-08-25T02:31:28;16.60;99.90
13682;DHT22;6913;49.892;7.936;2022-08-25T02:33:55;16.60;99.90
13682;DHT22;6913;49.892;7.936;2022-08-25T02:36:22;16.50;99.90
13682;DHT22;6913;49.892;7.936;2022-08-25T02:38:49;16.50;99.90
13682;DHT22;6913;49.892;7.936;2022-08-25T02:41:17;16.50;99.90
13682;DHT22;6913;49.892;7.936;2022-08-25T02:43:47;16.70;99.90
13682;DHT22;6913;49.892;7.936;2022-08-25T02:46:15;16.40;99.90
13682;DHT22;6913;49.892;7.936;2022-08-25T02:48:42;16.50;99.90
13682;DHT22;6913;49.892;7.936;2022-08-25T02:51:10;16.30;99.90
13682;DHT22;6913;49.892;7.936;2022-08-25T02:53:38;16.30;99.90
13682;DHT22;6913;49.892;7.936;2022-08-25T02:56:07;16.30;99.90
13682;DHT22;6913;49.892;7.936;2022-08-25T02:58:34;16.30;99.90
13682;DHT22;6913;49.892;7.936;2022-08-25T03:01:03;16.20;99.90
13682;DHT22;6913;49.892;7.936;2022-08-25T03:03:30;16.20;99.90
13682;DHT22;6913;49.892;7.936;2022-08-25T03:05:58;16.30;99.90
13682;DHT22;6913;49.892;7.936;2022-08-25T03:08:25;16.20;99.90
13682;DHT22;6913;49.892;7.936;2022-08-25T03:10:52;16.20;99.90
13682;DHT22;6913;49.892;7.936;2022-08-25T03:13:19;16.10;99.90
13682;DHT22;6913;49.892;7.936;2022-08-25T03:15:46;16.10;99.90
13682;DHT22;6913;49.892;7.936;2022-08-25T03:18:14;16.00;99.90
13682;DHT22;6913;49.892;7.936;2022-08-25T03:20:41;16.00;99.90
13682;DHT22;6913;49.892;7.936;2022-08-25T03:23:09;16.20;99.90
13682;DHT22;6913;49.892;7.936;2022-08-25T03:25:38;16.00;99.90
13682;DHT22;6913;49.892;7.936;2022-08-25T03:28:23;16.00;99.90
13682;DHT22;6913;49.892;7.936;2022-08-25T03:30:51;15.90;99.90
13682;DHT22;6913;49.892;7.936;2022-08-25T03:33:19;15.90;99.90
13682;DHT22;6913;49.892;7.936;2022-08-25T03:35:47;15.80;99.90
13682;DHT22;6913;49.892;7.936;2022-08-25T03:38:14;15.80;99.90
13682;DHT22;6913;49.892;7.936;2022-08-25T03:40:41;15.80;99.90
13682;DHT22;6913;49.892;7.936;2022-08-25T03:43:08;16.00;99.90
13682;DHT22;6913;49.892;7.936;2022-08-25T03:45:39;15.80;99.90
13682;DHT22;6913;49.892;7.936;2022-08-25T03:48:06;15.80;99.90
13682;DHT22;6913;49.892;7.936;2022-08-25T03:50:34;15.80;99.90
13682;DHT22;6913;49.892;7.936;2022-08-25T03:53:02;15.70;99.90
13682;DHT22;6913;49.892;7.936;2022-08-25T03:55:29;15.70;99.90
13682;DHT22;6913;49.892;7.936;2022-08-25T03:57:55;15.70;99.90
13682;DHT22;6913;49.892;7.936;2022-08-25T04:00:22;15.90;99.90
13682;DHT22;6913;49.892;7.936;2022-08-25T04:02:49;15.60;99.90
13682;DHT22;6913;49.892;7.936;2022-08-25T04:05:16;15.60;99.90
13682;DHT22;6913;49.892;7.936;2022-08-25T04:07:46;15.60;99.90
13682;DHT22;6913;49.892;7.936;2022-08-25T04:10:13;15.80;99.90
13682;DHT22;6913;49.892;7.936;2022-08-25T04:12:40;15.60;99.90
13682;DHT22;6913;49.892;7.936;2022-08-25T04:15:08;15.60;99.90
13682;DHT22;6913;49.892;7.936;2022-08-25T04:17:37;15.60;99.90
13682;DHT22;6913;49.892;7.936;2022-08-25T04:20:06;15.60;99.90
13682;DHT22;6913;49.892;7.936;2022-08-25T04:22:34;15.50;99.90
13682;DHT22;6913;49.892;7.936;2022-08-25T04:25:03;15.50;99.90
13682;DHT22;6913;49.892;7.936;2022-08-25T04:27:30;15.50;99.90
13682;DHT22;6913;49.892;7.936;2022-08-25T04:29:57;15.50;99.90
13682;DHT22;6913;49.892;7.936;2022-08-25T04:32:24;15.70;99.90
13682;DHT22;6913;49.892;7.936;2022-08-25T04:34:51;15.50;99.90
13682;DHT22;6913;49.892;7.936;2022-08-25T04:37:17;15.50;99.90
13682;DHT22;6913;49.892;7.936;2022-08-25T04:39:45;15.50;99.90
13682;DHT22;6913;49.892;7.936;2022-08-25T04:42:13;15.50;99.90
13682;DHT22;6913;49.892;7.936;2022-08-25T04:44:40;15.70;99.90
13682;DHT22;6913;49.892;7.936;2022-08-25T04:47:07;15.50;99.90
13682;DHT22;6913;49.892;7.936;2022-08-25T04:49:35;15.50;99.90
13682;DHT22;6913;49.892;7.936;2022-08-25T04:52:02;15.50;99.90
13682;DHT22;6913;49.892;7.936;2022-08-25T04:54:29;15.50;99.90
13682;DHT22;6913;49.892;7.936;2022-08-25T04:56:56;15.50;99.90
13682;DHT22;6913;49.892;7.936;2022-08-25T04:59:25;15.50;99.90
13682;DHT22;6913;49.892;7.936;2022-08-25T05:01:52;15.50;99.90
13682;DHT22;6913;49.892;7.936;2022-08-25T05:04:20;15.60;99.90
13682;DHT22;6913;49.892;7.936;2022-08-25T05:06:48;15.60;99.90
13682;DHT22;6913;49.892;7.936;2022-08-25T05:09:15;15.80;99.90
13682;DHT22;6913;49.892;7.936;2022-08-25T05:11:43;16.00;99.90
13682;DHT22;6913;49.892;7.936;2022-08-25T05:14:10;16.30;99.90
13682;DHT22;6913;49.892;7.936;2022-08-25T05:16:41;16.50;99.90
13682;DHT22;6913;49.892;7.936;2022-08-25T05:19:08;16.80;99.90
13682;DHT22;6913;49.892;7.936;2022-08-25T05:21:35;17.30;99.90
13682;DHT22;6913;49.892;7.936;2022-08-25T05:24:03;17.60;99.90
13682;DHT22;6913;49.892;7.936;2022-08-25T05:26:31;18.00;99.90
13682;DHT22;6913;49.892;7.936;2022-08-25T05:29:00;18.60;99.90
13682;DHT22;6913;49.892;7.936;2022-08-25T05:31:29;18.70;99.90
13682;DHT22;6913;49.892;7.936;2022-08-25T05:33:58;18.90;99.90
13682;DHT22;6913;49.892;7.936;2022-08-25T05:36:26;19.20;99.90
13682;DHT22;6913;49.892;7.936;2022-08-25T05:38:54;19.50;99.90
13682;DHT22;6913;49.892;7.936;2022-08-25T05:41:26;20.00;99.90
13682;DHT22;6913;49.892;7.936;2022-08-25T05:43:53;20.00;99.90
13682;DHT22;6913;49.892;7.936;2022-08-25T05:46:20;19.90;99.90
13682;DHT22;6913;49.892;7.936;2022-08-25T05:48:48;19.60;99.90
13682;DHT22;6913;49.892;7.936;2022-08-25T05:51:17;19.10;99.90
13682;DHT22;6913;49.892;7.936;2022-08-25T05:53:46;19.90;99.90
13682;DHT22;6913;49.892;7.936;2022-08-25T05:56:13;20.00;99.90
13682;DHT22;6913;49.892;7.936;2022-08-25T05:58:40;20.20;99.90
13682;DHT22;6913;49.892;7.936;2022-08-25T06:01:09;20.70;99.90
13682;DHT22;6913;49.892;7.936;2022-08-25T06:03:53;21.00;99.90
13682;DHT22;6913;49.892;7.936;2022-08-25T06:06:22;21.30;99.90
13682;DHT22;6913;49.892;7.936;2022-08-25T06:08:50;22.40;99.90
13682;DHT22;6913;49.892;7.936;2022-08-25T06:11:17;23.00;99.90
13682;DHT22;6913;49.892;7.936;2022-08-25T06:13:44;23.30;99.90
13682;DHT22;6913;49.892;7.936;2022-08-25T06:16:11;24.00;99.90
13682;DHT22;6913;49.892;7.936;2022-08-25T06:18:38;24.20;99.90
13682;DHT22;6913;49.892;7.936;2022-08-25T06:21:09;23.90;99.90
13682;DHT22;6913;49.892;7.936;2022-08-25T06:23:38;24.20;99.90
13682;DHT22;6913;49.892;7.936;2022-08-25T06:26:05;24.30;99.90
13682;DHT22;6913;49.892;7.936;2022-08-25T06:28:32;24.30;99.90
13682;DHT22;6913;49.892;7.936;2022-08-25T06:31:00;24.80;99.90
13682;DHT22;6913;49.892;7.936;2022-08-25T06:33:28;25.30;99.90
13682;DHT22;6913;49.892;7.936;2022-08-25T06:35:55;25.80;99.90
13682;DHT22;6913;49.892;7.936;2022-08-25T06:38:23;26.00;99.90
13682;DHT22;6913;49.892;7.936;2022-08-25T06:40:51;26.10;99.90
13682;DHT22;6913;49.892;7.936;2022-08-25T06:43:18;26.70;99.90
13682;DHT22;6913;49.892;7.936;2022-08-25T06:45:45;26.90;99.90
13682;DHT22;6913;49.892;7.936;2022-08-25T06:48:13;26.50;99.90
13682;DHT22;6913;49.892;7.936;2022-08-25T06:50:40;26.70;99.90
13682;DHT22;6913;49.892;7.936;2022-08-25T06:53:08;27.30;99.90
13682;DHT22;6913;49.892;7.936;2022-08-25T06:55:35;28.10;99.90
13682;DHT22;6913;49.892;7.936;2022-08-25T06:58:04;28.50;99.80
13682;DHT22;6913;49.892;7.936;2022-08-25T07:00:31;29.00;99.10
13682;DHT22;6913;49.892;7.936;2022-08-25T07:02:59;29.40;97.90
13682;DHT22;6913;49.892;7.936;2022-08-25T07:05:26;30.00;96.90
13682;DHT22;6913;49.892;7.936;2022-08-25T07:07:56;29.70;96.50
13682;DHT22;6913;49.892;7.936;2022-08-25T07:10:23;29.30;97.50
13682;DHT22;6913;49.892;7.936;2022-08-25T07:12:50;29.80;96.80
13682;DHT22;6913;49.892;7.936;2022-08-25T07:15:19;29.20;97.20
13682;DHT22;6913;49.892;7.936;2022-08-25T07:17:46;29.60;97.20
13682;DHT22;6913;49.892;7.936;2022-08-25T07:20:14;30.10;96.40
13682;DHT22;6913;49.892;7.936;2022-08-25T07:22:41;30.50;96.10
13682;DHT22;6913;49.892;7.936;2022-08-25T07:25:08;30.80;96.00
13682;DHT22;6913;49.892;7.936;2022-08-25T07:27:37;30.90;95.30
13682;DHT22;6913;49.892;7.936;2022-08-25T07:30:06;30.80;95.70
13682;DHT22;6913;49.892;7.936;2022-08-25T07:32:35;30.70;95.70
13682;DHT22;6913;49.892;7.936;2022-08-25T07:35:02;30.30;96.20
13682;DHT22;6913;49.892;7.936;2022-08-25T07:37:42;30.90;95.80
13682;DHT22;6913;49.892;7.936;2022-08-25T07:40:11;30.20;95.90
13682;DHT22;6913;49.892;7.936;2022-08-25T07:42:39;29.70;96.80
13682;DHT22;6913;49.892;7.936;2022-08-25T07:45:07;30.70;96.60
13682;DHT22;6913;49.892;7.936;2022-08-25T07:47:36;31.00;95.70
13682;DHT22;6913;49.892;7.936;2022-08-25T07:50:05;31.30;95.50
13682;DHT22;6913;49.892;7.936;2022-08-25T07:52:32;31.90;95.30
13682;DHT22;6913;49.892;7.936;2022-08-25T07:54:59;32.20;94.40
13682;DHT22;6913;49.892;7.936;2022-08-25T07:57:26;32.80;93.60
13682;DHT22;6913;49.892;7.936;2022-08-25T07:59:54;32.80;93.40
13682;DHT22;6913;49.892;7.936;2022-08-25T08:02:21;32.70;93.20
13682;DHT22;6913;49.892;7.936;2022-08-25T08:04:52;32.20;94.30
13682;DHT22;6913;49.892;7.936;2022-08-25T08:07:21;31.90;94.20
13682;DHT22;6913;49.892;7.936;2022-08-25T08:09:49;32.20;94.50
13682;DHT22;6913;49.892;7.936;2022-08-25T08:12:16;32.40;95.20
13682;DHT22;6913;49.892;7.936;2022-08-25T08:14:43;32.50;95.10
13682;DHT22;6913;49.892;7.936;2022-08-25T08:17:12;33.00;94.80
13682;DHT22;6913;49.892;7.936;2022-08-25T08:19:39;33.60;94.60
13682;DHT22;6913;49.892;7.936;2022-08-25T08:22:08;34.10;93.60
13682;DHT22;6913;49.892;7.936;2022-08-25T08:24:39;32.70;94.30
13682;DHT22;6913;49.892;7.936;2022-08-25T08:27:11;32.80;95.00
13682;DHT22;6913;49.892;7.936;2022-08-25T08:29:39;30.30;97.70
13682;DHT22;6913;49.892;7.936;2022-08-25T08:32:08;29.90;99.10
13682;DHT22;6913;49.892;7.936;2022-08-25T08:34:38;30.10;98.40
13682;DHT22;6913;49.892;7.936;2022-08-25T08:37:08;28.90;99.90
13682;DHT22;6913;49.892;7.936;2022-08-25T08:39:36;28.70;99.90
13682;DHT22;6913;49.892;7.936;2022-08-25T08:42:22;29.10;99.90
13682;DHT22;6913;49.892;7.936;2022-08-25T08:45:05;30.10;99.90
13682;DHT22;6913;49.892;7.936;2022-08-25T08:47:45;31.60;98.60
13682;DHT22;6913;49.892;7.936;2022-08-25T08:50:26;32.50;97.30
13682;DHT22;6913;49.892;7.936;2022-08-25T08:53:01;32.60;96.30
13682;DHT22;6913;49.892;7.936;2022-08-25T08:55:36;31.10;98.00
13682;DHT22;6913;49.892;7.936;2022-08-25T08:58:06;30.10;99.40
13682;DHT22;6913;49.892;7.936;2022-08-25T09:00:41;30.70;98.70
13682;DHT22;6913;49.892;7.936;2022-08-25T09:03:14;30.40;98.70
13682;DHT22;6913;49.892;7.936;2022-08-25T09:05:48;30.60;98.20
13682;DHT22;6913;49.892;7.936;2022-08-25T09:08:19;30.60;98.30
13682;DHT22;6913;49.892;7.936;2022-08-25T09:10:56;30.60;98.40
13682;DHT22;6913;49.892;7.936;2022-08-25T09:13:35;30.50;98.70
13682;DHT22;6913;49.892;7.936;2022-08-25T09:16:10;30.20;98.60
13682;DHT22;6913;49.892;7.936;2022-08-25T09:19:06;30.10;98.70
13682;DHT22;6913;49.892;7.936;2022-08-25T09:21:39;29.70;99.50
13682;DHT22;6913;49.892;7.936;2022-08-25T09:24:20;29.50;99.90
13682;DHT22;6913;49.892;7.936;2022-08-25T09:27:02;30.00;99.60
13682;DHT22;6913;49.892;7.936;2022-08-25T09:29:41;29.40;99.50
13682;DHT22;6913;49.892;7.936;2022-08-25T09:32:11;29.80;98.70
13682;DHT22;6913;49.892;7.936;2022-08-25T09:34:38;30.00;98.60
13682;DHT22;6913;49.892;7.936;2022-08-25T09:37:06;30.10;98.20
13682;DHT22;6913;49.892;7.936;2022-08-25T09:39:35;29.70;98.10
13682;DHT22;6913;49.892;7.936;2022-08-25T09:42:04;29.10;98.80
13682;DHT22;6913;49.892;7.936;2022-08-25T09:44:32;29.30;99.20
13682;DHT22;6913;49.892;7.936;2022-08-25T09:47:05;29.90;97.30
13682;DHT22;6913;49.892;7.936;2022-08-25T09:49:40;29.90;98.00
13682;DHT22;6913;49.892;7.936;2022-08-25T09:52:23;29.90;97.30
13682;DHT22;6913;49.892;7.936;2022-08-25T09:54:53;29.60;97.70
13682;DHT22;6913;49.892;7.936;2022-08-25T09:57:32;29.80;97.90
13682;DHT22;6913;49.892;7.936;2022-08-25T10:00:11;29.60;98.20
13682;DHT22;6913;49.892;7.936;2022-08-25T10:02:38;29.50;98.50
13682;DHT22;6913;49.892;7.936;2022-08-25T10:05:19;30.10;97.90
13682;DHT22;6913;49.892;7.936;2022-08-25T10:07:53;30.10;97.20
13682;DHT22;6913;49.892;7.936;2022-08-25T10:10:28;30.30;97.30
13682;DHT22;6913;49.892;7.936;2022-08-25T10:12:55;30.90;96.50
13682;DHT22;6913;49.892;7.936;2022-08-25T10:15:28;30.60;97.00
13682;DHT22;6913;49.892;7.936;2022-08-25T10:17:56;30.50;96.90
13682;DHT22;6913;49.892;7.936;2022-08-25T10:20:41;30.50;96.30
13682;DHT22;6913;49.892;7.936;2022-08-25T10:23:11;30.20;94.30
13682;DHT22;6913;49.892;7.936;2022-08-25T10:25:43;30.80;94.00
13682;DHT22;6913;49.892;7.936;2022-08-25T10:28:14;31.00;95.20
13682;DHT22;6913;49.892;7.936;2022-08-25T10:30:52;30.70;94.30
13682;DHT22;6913;49.892;7.936;2022-08-25T10:33:27;31.40;94.20
13682;DHT22;6913;49.892;7.936;2022-08-25T10:35:58;31.20;93.40
13682;DHT22;6913;49.892;7.936;2022-08-25T10:38:35;30.90;94.30
13682;DHT22;6913;49.892;7.936;2022-08-25T10:44:06;31.80;93.00
13682;DHT22;6913;49.892;7.936;2022-08-25T10:47:04;30.60;93.90
13682;DHT22;6913;49.892;7.936;2022-08-25T10:49:39;29.80;95.20
13682;DHT22;6913;49.892;7.936;2022-08-25T10:52:15;30.40;95.20
13682;DHT22;6913;49.892;7.936;2022-08-25T10:54:48;30.80;94.00
13682;DHT22;6913;49.892;7.936;2022-08-25T10:57:22;31.20;93.90
13682;DHT22;6913;49.892;7.936;2022-08-25T11:00:00;31.90;94.20
13682;DHT22;6913;49.892;7.936;2022-08-25T11:03:05;32.80;92.20
13682;DHT22;6913;49.892;7.936;2022-08-25T11:05:41;31.40;92.10
13682;DHT22;6913;49.892;7.936;2022-08-25T11:08:14;30.60;93.50
13682;DHT22;6913;49.892;7.936;2022-08-25T11:10:46;30.60;93.80
13682;DHT22;6913;49.892;7.936;2022-08-25T11:13:27;31.40;93.30
13682;DHT22;6913;49.892;7.936;2022-08-25T11:16:00;32.20;92.20
13682;DHT22;6913;49.892;7.936;2022-08-25T11:18:29;32.60;91.40
13682;DHT22;6913;49.892;7.936;2022-08-25T11:21:02;32.00;90.60
13682;DHT22;6913;49.892;7.936;2022-08-25T11:23:35;32.60;90.20
13682;DHT22;6913;49.892;7.936;2022-08-25T11:26:07;33.70;88.40
13682;DHT22;6913;49.892;7.936;2022-08-25T11:28:48;33.70;88.20
13682;DHT22;6913;49.892;7.936;2022-08-25T11:31:19;32.90;88.60
13682;DHT22;6913;49.892;7.936;2022-08-25T11:33:48;33.20;87.00
13682;DHT22;6913;49.892;7.936;2022-08-25T11:36:23;33.10;87.20
13682;DHT22;6913;49.892;7.936;2022-08-25T11:38:56;32.70;87.30
13682;DHT22;6913;49.892;7.936;2022-08-25T11:41:29;33.10;87.00
13682;DHT22;6913;49.892;7.936;2022-08-25T11:44:16;32.90;87.10
13682;DHT22;6913;49.892;7.936;2022-08-25T11:46:54;32.60;87.80
13682;DHT22;6913;49.892;7.936;2022-08-25T11:49:42;32.00;88.50
13682;DHT22;6913;49.892;7.936;2022-08-25T11:55:18;32.40;88.90
13682;DHT22;6913;49.892;7.936;2022-08-25T11:57:47;31.70;89.60
13682;DHT22;6913;49.892;7.936;2022-08-25T12:00:35;32.20;88.10
13682;DHT22;6913;49.892;7.936;2022-08-25T12:06:20;32.30;89.30
13682;DHT22;6913;49.892;7.936;2022-08-25T12:08:50;32.00;87.00
13682;DHT22;6913;49.892;7.936;2022-08-25T12:17:26;31.70;88.80
13682;DHT22;6913;49.892;7.936;2022-08-25T12:20:03;32.50;87.00
13682;DHT22;6913;49.892;7.936;2022-08-25T12:22:53;32.90;87.20
13682;DHT22;6913;49.892;7.936;2022-08-25T12:28:36;32.90;85.20
13682;DHT22;6913;49.892;7.936;2022-08-25T12:31:15;33.10;83.90
13682;DHT22;6913;49.892;7.936;2022-08-25T12:33:56;33.00;86.00
13682;DHT22;6913;49.892;7.936;2022-08-25T12:36:26;33.90;83.60
13682;DHT22;6913;49.892;7.936;2022-08-25T12:39:08;33.40;84.50
13682;DHT22;6913;49.892;7.936;2022-08-25T12:41:52;33.50;84.70
13682;DHT22;6913;49.892;7.936;2022-08-25T12:44:38;33.20;84.90
13682;DHT22;6913;49.892;7.936;2022-08-25T12:47:12;33.00;81.00
13682;DHT22;6913;49.892;7.936;2022-08-25T12:49:41;32.90;82.40
13682;DHT22;6913;49.892;7.936;2022-08-25T12:52:14;32.10;82.70
13682;DHT22;6913;49.892;7.936;2022-08-25T12:54:47;31.80;86.30
13682;DHT22;6913;49.892;7.936;2022-08-25T12:57:27;32.50;85.80
13682;DHT22;6913;49.892;7.936;2022-08-25T13:00:12;32.60;87.60
13682;DHT22;6913;49.892;7.936;2022-08-25T13:03:14;33.10;85.00
13682;DHT22;6913;49.892;7.936;2022-08-25T13:06:07;33.00;85.80
13682;DHT22;6913;49.892;7.936;2022-08-25T13:11:38;32.80;83.50
13682;DHT22;6913;49.892;7.936;2022-08-25T13:14:15;32.70;84.90
13682;DHT22;6913;49.892;7.936;2022-08-25T13:16:52;32.50;85.30
13682;DHT22;6913;49.892;7.936;2022-08-25T13:19:20;32.00;87.00
13682;DHT22;6913;49.892;7.936;2022-08-25T13:21:49;32.70;85.90
13682;DHT22;6913;49.892;7.936;2022-08-25T13:24:20;32.80;85.80
13682;DHT22;6913;49.892;7.936;2022-08-25T13:26:51;33.10;83.60
13682;DHT22;6913;49.892;7.936;2022-08-25T13:29:21;32.90;85.10
13682;DHT22;6913;49.892;7.936;2022-08-25T13:31:51;33.30;84.70
13682;DHT22;6913;49.892;7.936;2022-08-25T13:34:22;33.70;83.50
13682;DHT22;6913;49.892;7.936;2022-08-25T13:36:51;33.10;83.10
13682;DHT22;6913;49.892;7.936;2022-08-25T13:39:37;32.50;83.60
13682;DHT22;6913;49.892;7.936;2022-08-25T13:42:06;31.80;85.10
13682;DHT22;6913;49.892;7.936;2022-08-25T13:44:38;32.30;84.70
13682;DHT22;6913;49.892;7.936;2022-08-25T13:47:07;32.70;83.70
13682;DHT22;6913;49.892;7.936;2022-08-25T13:49:35;32.30;84.30
13682;DHT22;6913;49.892;7.936;2022-08-25T13:52:05;31.80;84.90
13682;DHT22;6913;49.892;7.936;2022-08-25T13:54:37;32.00;84.80
13682;DHT22;6913;49.892;7.936;2022-08-25T13:57:09;31.90;84.50
13682;DHT22;6913;49.892;7.936;2022-08-25T13:59:40;32.30;84.40
13682;DHT22;6913;49.892;7.936;2022-08-25T14:02:11;32.30;83.30
13682;DHT22;6913;49.892;7.936;2022-08-25T14:04:47;32.50;84.50
13682;DHT22;6913;49.892;7.936;2022-08-25T14:07:27;32.50;83.00
13682;DHT22;6913;49.892;7.936;2022-08-25T14:09:56;32.70;83.40
13682;DHT22;6913;49.892;7.936;2022-08-25T14:12:36;32.80;82.90
13682;DHT22;6913;49.892;7.936;2022-08-25T14:15:08;32.60;82.40
13682;DHT22;6913;49.892;7.936;2022-08-25T14:17:41;32.30;83.20
13682;DHT22;6913;49.892;7.936;2022-08-25T14:23:29;33.20;82.60
13682;DHT22;6913;49.892;7.936;2022-08-25T14:25:57;33.90;80.80
13682;DHT22;6913;49.892;7.936;2022-08-25T14:28:25;33.60;80.60
13682;DHT22;6913;49.892;7.936;2022-08-25T14:30:55;32.90;80.70
13682;DHT22;6913;49.892;7.936;2022-08-25T14:33:29;32.30;82.40
13682;DHT22;6913;49.892;7.936;2022-08-25T14:35:59;32.40;83.40
13682;DHT22;6913;49.892;7.936;2022-08-25T14:38:28;32.50;82.70
13682;DHT22;6913;49.892;7.936;2022-08-25T14:40:55;32.20;83.70
13682;DHT22;6913;49.892;7.936;2022-08-25T14:43:22;32.30;82.80
13682;DHT22;6913;49.892;7.936;2022-08-25T14:45:49;32.40;83.80
13682;DHT22;6913;49.892;7.936;2022-08-25T14:48:22;32.80;82.90
13682;DHT22;6913;49.892;7.936;2022-08-25T14:50:50;33.40;81.30
13682;DHT22;6913;49.892;7.936;2022-08-25T14:53:17;33.00;81.80
13682;DHT22;6913;49.892;7.936;2022-08-25T14:55:46;32.90;82.60
13682;DHT22;6913;49.892;7.936;2022-08-25T14:58:13;32.30;82.10
13682;DHT22;6913;49.892;7.936;2022-08-25T15:00:43;32.60;82.80
13682;DHT22;6913;49.892;7.936;2022-08-25T15:03:13;32.40;81.60
13682;DHT22;6913;49.892;7.936;2022-08-25T15:05:42;31.80;82.60
13682;DHT22;6913;49.892;7.936;2022-08-25T15:08:09;32.40;82.20
13682;DHT22;6913;49.892;7.936;2022-08-25T15:10:55;32.30;82.20
13682;DHT22;6913;49.892;7.936;2022-08-25T15:13:22;32.10;82.10
13682;DHT22;6913;49.892;7.936;2022-08-25T15:15:52;32.30;82.60
13682;DHT22;6913;49.892;7.936;2022-08-25T15:18:19;32.10;82.00
13682;DHT22;6913;49.892;7.936;2022-08-25T15:20:46;32.30;83.10
13682;DHT22;6913;49.892;7.936;2022-08-25T15:23:13;32.50;81.60
13682;DHT22;6913;49.892;7.936;2022-08-25T15:25:40;33.10;80.50
13682;DHT22;6913;49.892;7.936;2022-08-25T15:28:09;32.50;80.30
13682;DHT22;6913;49.892;7.936;2022-08-25T15:30:36;32.10;81.80
13682;DHT22;6913;49.892;7.936;2022-08-25T15:33:03;32.10;82.00
13682;DHT22;6913;49.892;7.936;2022-08-25T15:35:30;32.20;82.80
13682;DHT22;6913;49.892;7.936;2022-08-25T15:37:57;32.20;81.90
13682;DHT22;6913;49.892;7.936;2022-08-25T15:40:24;32.10;82.20
13682;DHT22;6913;49.892;7.936;2022-08-25T15:42:51;32.30;82.40
13682;DHT22;6913;49.892;7.936;2022-08-25T15:45:19;32.90;81.40
13682;DHT22;6913;49.892;7.936;2022-08-25T15:47:46;33.30;81.00
13682;DHT22;6913;49.892;7.936;2022-08-25T15:50:15;32.50;80.70
13682;DHT22;6913;49.892;7.936;2022-08-25T15:52:43;32.30;82.00
13682;DHT22;6913;49.892;7.936;2022-08-25T15:55:11;32.10;81.60
13682;DHT22;6913;49.892;7.936;2022-08-25T15:57:38;31.80;81.90
13682;DHT22;6913;49.892;7.936;2022-08-25T16:00:07;32.00;82.20
13682;DHT22;6913;49.892;7.936;2022-08-25T16:02:37;31.80;82.10
13682;DHT22;6913;49.892;7.936;2022-08-25T16:05:05;31.90;82.80
13682;DHT22;6913;49.892;7.936;2022-08-25T16:07:33;32.10;81.70
13682;DHT22;6913;49.892;7.936;2022-08-25T16:10:03;31.90;82.10
13682;DHT22;6913;49.892;7.936;2022-08-25T16:12:31;31.80;82.00
13682;DHT22;6913;49.892;7.936;2022-08-25T16:14:58;32.00;81.30
13682;DHT22;6913;49.892;7.936;2022-08-25T16:17:25;31.80;81.40
13682;DHT22;6913;49.892;7.936;2022-08-25T16:19:53;31.60;82.00
13682;DHT22;6913;49.892;7.936;2022-08-25T16:22:20;31.70;83.10
13682;DHT22;6913;49.892;7.936;2022-08-25T16:24:46;31.30;82.40
13682;DHT22;6913;49.892;7.936;2022-08-25T16:27:13;31.60;83.30
13682;DHT22;6913;49.892;7.936;2022-08-25T16:29:42;31.70;81.60